Aviation Digital Data Service (ADDS)

Output produced by METARs form (2211 UTC 26 February 2020)
found at http://www.aviationweather.gov/metar/data/
 
ESTA 262150Z AUTO 35005KT 9999 OVC043/// M01/M04 Q0997
TAF ESTA 262001Z 2621/2623 36006KT 9999 BKN030